Flight Track Log - Related Links

Times and Time Zones

All times are in EDT time to prevent confusion due to time zone crossing. See the FIN666 flight status page for this flight to view local times or setup timezone preferences in your user account.

Time Position Orientation Groundspeed Altitude Reporting Facility
EDT Latitude Longitude Course Direction KTS MPH feet Rate Location/Type
Tue 07:26:00 AM 55.8166 13.0661 49° Northeast  Level Estimated
Tue 07:27:00 AM 55.8825 13.2038 49° Northeast  Level Estimated
Tue 07:28:00 AM 55.9483 13.3419 50° Northeast  Level Estimated
Tue 07:29:00 AM 56.0139 13.4805 50° Northeast  Level Estimated
Tue 07:30:00 AM 56.0838 13.6289 50° Northeast  Level Estimated
Tue 07:31:00 AM 56.1535 13.7779 50° Northeast  Level Estimated
Tue 07:32:00 AM 56.2230 13.9275 50° Northeast  Level Estimated
Tue 07:33:00 AM 56.2923 14.0776 50° Northeast  Level Estimated
Tue 07:34:00 AM 56.3615 14.2282 50° Northeast  Level Estimated
Tue 07:35:00 AM 56.4304 14.3794 50° Northeast  Level Estimated
Tue 07:36:00 AM 56.4992 14.5311 51° Northeast  Level Estimated
Tue 07:37:00 AM 56.5678 14.6834 51° Northeast  Level Estimated
Tue 07:38:00 AM 56.6362 14.8363 51° Northeast  Level Estimated
Tue 07:39:00 AM 56.7045 14.9896 51° Northeast  Level Estimated
Tue 07:40:00 AM 56.7725 15.1436 51° Northeast  Level Estimated
Tue 07:41:00 AM 56.8403 15.2981 51° Northeast  Level Estimated
Tue 07:42:00 AM 56.9080 15.4531 51° Northeast  Level Estimated
Tue 07:43:00 AM 56.9754 15.6088 51° Northeast  Level Estimated
Tue 07:44:00 AM 57.0427 15.7650 52° Northeast  Level Estimated
Tue 07:45:00 AM 57.1098 15.9217 52° Northeast  Level Estimated
Tue 07:46:00 AM 57.1767 16.0790 52° Northeast  Level Estimated
Tue 07:47:00 AM 57.2433 16.2369 52° Northeast  Level Estimated
Tue 07:48:00 AM 57.3098 16.3954 52° Northeast  Level Estimated
Tue 07:49:00 AM 57.3761 16.5544 52° Northeast  Level Estimated
Tue 07:50:00 AM 57.4422 16.7141 52° Northeast  Level Estimated
Tue 07:51:00 AM 57.5072 16.8721 53° Northeast  Level Estimated
Tue 07:52:00 AM 57.5720 17.0307 53° Northeast  Level Estimated
Tue 07:53:00 AM 57.6366 17.1899 53° Northeast  Level Estimated
Tue 07:54:00 AM 57.7010 17.3496 53° Northeast  Level Estimated
Tue 07:55:00 AM 57.7652 17.5099 53° Northeast  Level Estimated
Tue 07:56:00 AM 57.8292 17.6708 53° Northeast  Level Estimated
Tue 07:57:00 AM 57.8930 17.8323 53° Northeast  Level Estimated
Tue 07:58:00 AM 57.9565 17.9943 53° Northeast  Level Estimated
Tue 07:59:00 AM 58.0199 18.1569 54° Northeast  Level Estimated
Tue 08:00:00 AM 58.0831 18.3201 54° Northeast  Level Estimated
Tue 08:01:00 AM 58.1460 18.4838 54° Northeast  Level Estimated
Tue 08:02:00 AM 58.2088 18.6482 54° Northeast  Level Estimated
Tue 08:03:00 AM 58.2713 18.8131 54° Northeast  Level Estimated
Tue 08:04:00 AM 58.3337 18.9786 54° Northeast  Level Estimated
Tue 08:05:00 AM 58.3958 19.1447 54° Northeast  Level Estimated
Tue 08:06:00 AM 58.4577 19.3113 55° Northeast  Level Estimated
Tue 08:07:00 AM 58.5194 19.4786 55° Northeast  Level Estimated
Tue 08:08:00 AM 58.5808 19.6464 55° Northeast  Level Estimated
Tue 08:09:00 AM 58.6421 19.8149 55° Northeast  Level Estimated
Tue 08:10:00 AM 58.7031 19.9839 55° Northeast  Level Estimated
Tue 08:11:00 AM 58.7639 20.1535 55° Northeast  Level Estimated
Tue 08:12:00 AM 58.8245 20.3237 55° Northeast  Level Estimated
Tue 08:13:00 AM 58.8848 20.4945 56° Northeast  Level Estimated
Tue 08:14:00 AM 58.9449 20.6659 56° Northeast  Level Estimated
Tue 08:15:00 AM 59.0048 20.8379 56° Northeast  Level Estimated
Tue 08:16:00 AM 59.0645 21.0105 56° Northeast  Level Estimated
Tue 08:17:00 AM 59.1239 21.1837 56° Northeast  Level Estimated
Tue 08:18:00 AM 59.1831 21.3575 56° Northeast  Level Estimated
Tue 08:19:00 AM 59.2429 21.5342 56° Northeast  Level Estimated
Tue 08:20:00 AM 59.3024 21.7116 57° Northeast  Level Estimated
Tue 08:21:00 AM 59.3617 21.8896 57° Northeast  Level Estimated
Tue 08:22:00 AM 59.4208 22.0682 57° Northeast  Level Estimated
Tue 08:23:00 AM 59.4796 22.2475 57° Northeast  Level Estimated
Tue 08:24:00 AM 59.5381 22.4273 57° Northeast  Level Estimated
Tue 08:25:00 AM 59.5964 22.6078 57° Northeast  Level Estimated
Tue 08:26:00 AM 59.6545 22.7889 58° Northeast  Level Estimated
Tue 08:27:00 AM 59.7123 22.9707 58° Northeast  Level Estimated
Tue 08:28:00 AM 59.7698 23.1530 58° Northeast  Level Estimated
Tue 08:29:00 AM 59.8271 23.3361 58° Northeast  Level Estimated
Tue 08:30:00 AM 59.8842 23.5197 58° Northeast  Level Estimated
Tue 08:31:00 AM 59.9410 23.7039 58° Northeast  Level Estimated
Tue 08:32:00 AM 59.9975 23.8888 58° Northeast  Level Estimated
Tue 08:33:00 AM 60.0538 24.0743 59° Northeast  Level Estimated
Tue 08:34:00 AM 60.1098 24.2605 59° Northeast  Level Estimated
Tue 08:35:00 AM 60.1655 24.4473 59° Northeast  Level Estimated
Tue 08:36:00 AM 60.2210 24.6347 59° Northeast  Level Estimated
Tue 08:37:00 AM 60.2762 24.8228 59° Northeast  Level Estimated
Tue 08:38:00 AM 60.3172 24.9633 59° Northeast  Level Estimated
Tue 08:39:00 AM 60.3172 24.9633 North  Level Estimated
Tue 08:40:00 AM 60.3172 24.9633 North  Level Estimated
Tue 08:41:00 AM 60.3172 24.9633 North  Level Estimated
Tue 08:42:00 AM 60.3172 24.9633 North  Level Estimated
Tue 08:43:00 AM 60.3172 24.9633 North  Level Estimated
Tue 08:44:00 AM 60.3172 24.9633 North  Level Estimated
Tue 08:45:00 AM 60.3172 24.9633 North  Level Estimated
Tue 08:46:00 AM 60.3172 24.9633 North  Level Estimated
Tue 08:47:00 AM 60.3172 24.9633 North  Level Estimated
Tue 08:48:00 AM 60.3172 24.9633 North  Level Estimated
Tue 08:49:00 AM 60.3172 24.9633 North  Level Estimated

Login

Don't have an account? Register now (free) for customized features, flight alerts, and more!